Terminal Aerodrome Forecast
Issued by NWS Atlanta, GA

Home | Current Version | Previous Version | Text Only | Print | Product List | Glossary On
Versions: 1 2 3 4 5 6 7 8 9 10 11 12 13 14 15 16 17 18 19 20 21 22 23 24 25 26 27 28 29 30 31 32 33 34 35
430
FTAK31 PAJN 121750
TAFAHN
TAF
PAHN 121750Z 1218/1318 10007KT P6SM -SHRA BKN025 OVC040
     FM122000 07010KT P6SM -SHRA SCT015 OVC040
     FM122300 10010G20KT P6SM -SHRA SCT015 OVC040
     FM130700 07008KT P6SM -SHRA SCT025 OVC060
     FM131500 29006KT P6SM VCSH OVC060
      AMD LTD TO CLD VIS AND WIND=

USA.gov is the U.S. government's official web portal to all federal, state and local government web resources and services.